sensor_id;sensor_type;location;lat;lon;timestamp;P1;durP1;ratioP1;P2;durP2;ratioP2
77276;SDS011;66330;52.166;9.978;2023-02-04T00:01:35;16.73;;;5.43;;
77276;SDS011;66330;52.166;9.978;2023-02-04T00:04:01;18.47;;;5.60;;
77276;SDS011;66330;52.166;9.978;2023-02-04T00:06:26;17.53;;;4.63;;
77276;SDS011;66330;52.166;9.978;2023-02-04T00:08:52;21.40;;;4.63;;
77276;SDS011;66330;52.166;9.978;2023-02-04T00:11:17;14.77;;;4.53;;
77276;SDS011;66330;52.166;9.978;2023-02-04T00:13:43;15.07;;;3.60;;
77276;SDS011;66330;52.166;9.978;2023-02-04T00:16:09;20.00;;;4.20;;
77276;SDS011;66330;52.166;9.978;2023-02-04T00:18:34;11.70;;;4.07;;
77276;SDS011;66330;52.166;9.978;2023-02-04T00:21:00;13.97;;;5.10;;
77276;SDS011;66330;52.166;9.978;2023-02-04T00:23:25;14.83;;;3.80;;
77276;SDS011;66330;52.166;9.978;2023-02-04T00:25:51;11.53;;;4.10;;
77276;SDS011;66330;52.166;9.978;2023-02-04T00:28:16;12.73;;;3.50;;
77276;SDS011;66330;52.166;9.978;2023-02-04T00:30:42;8.70;;;3.90;;
77276;SDS011;66330;52.166;9.978;2023-02-04T00:33:08;9.27;;;2.70;;
77276;SDS011;66330;52.166;9.978;2023-02-04T00:35:33;9.53;;;3.63;;
77276;SDS011;66330;52.166;9.978;2023-02-04T00:38:01;7.33;;;2.63;;
77276;SDS011;66330;52.166;9.978;2023-02-04T00:40:27;6.63;;;2.93;;
77276;SDS011;66330;52.166;9.978;2023-02-04T00:42:53;7.87;;;3.90;;
77276;SDS011;66330;52.166;9.978;2023-02-04T00:45:18;9.23;;;2.97;;
77276;SDS011;66330;52.166;9.978;2023-02-04T00:47:44;8.60;;;2.07;;
77276;SDS011;66330;52.166;9.978;2023-02-04T00:50:10;7.33;;;2.13;;
77276;SDS011;66330;52.166;9.978;2023-02-04T00:52:35;7.90;;;2.47;;
77276;SDS011;66330;52.166;9.978;2023-02-04T00:55:01;5.90;;;2.37;;
77276;SDS011;66330;52.166;9.978;2023-02-04T00:57:26;9.70;;;3.20;;
77276;SDS011;66330;52.166;9.978;2023-02-04T00:59:52;4.53;;;2.27;;
77276;SDS011;66330;52.166;9.978;2023-02-04T01:02:18;8.67;;;2.87;;
77276;SDS011;66330;52.166;9.978;2023-02-04T01:04:43;12.70;;;2.80;;
77276;SDS011;66330;52.166;9.978;2023-02-04T01:07:09;4.30;;;2.00;;
77276;SDS011;66330;52.166;9.978;2023-02-04T01:09:34;8.70;;;3.00;;
77276;SDS011;66330;52.166;9.978;2023-02-04T01:12:00;11.13;;;3.17;;
77276;SDS011;66330;52.166;9.978;2023-02-04T01:14:25;5.17;;;2.50;;
77276;SDS011;66330;52.166;9.978;2023-02-04T01:16:51;4.67;;;2.53;;
77276;SDS011;66330;52.166;9.978;2023-02-04T01:19:17;8.07;;;2.57;;
77276;SDS011;66330;52.166;9.978;2023-02-04T01:21:43;8.70;;;2.17;;
77276;SDS011;66330;52.166;9.978;2023-02-04T01:24:08;3.73;;;1.57;;
77276;SDS011;66330;52.166;9.978;2023-02-04T01:26:34;4.37;;;1.77;;
77276;SDS011;66330;52.166;9.978;2023-02-04T01:28:59;5.80;;;1.57;;
77276;SDS011;66330;52.166;9.978;2023-02-04T01:31:25;4.50;;;1.87;;
77276;SDS011;66330;52.166;9.978;2023-02-04T01:33:50;3.80;;;1.57;;
77276;SDS011;66330;52.166;9.978;2023-02-04T01:36:16;5.77;;;1.80;;
77276;SDS011;66330;52.166;9.978;2023-02-04T01:38:45;3.23;;;1.73;;
77276;SDS011;66330;52.166;9.978;2023-02-04T01:41:12;2.60;;;1.47;;
77276;SDS011;66330;52.166;9.978;2023-02-04T01:43:38;3.63;;;1.43;;
77276;SDS011;66330;52.166;9.978;2023-02-04T01:46:03;3.33;;;1.17;;
77276;SDS011;66330;52.166;9.978;2023-02-04T01:48:29;2.40;;;1.30;;
77276;SDS011;66330;52.166;9.978;2023-02-04T01:51:01;3.63;;;1.10;;
77276;SDS011;66330;52.166;9.978;2023-02-04T01:53:29;2.33;;;1.40;;
77276;SDS011;66330;52.166;9.978;2023-02-04T01:55:55;2.40;;;1.50;;
77276;SDS011;66330;52.166;9.978;2023-02-04T01:58:21;1.43;;;0.80;;
77276;SDS011;66330;52.166;9.978;2023-02-04T02:00:46;2.97;;;1.30;;
77276;SDS011;66330;52.166;9.978;2023-02-04T02:03:12;5.60;;;1.50;;
77276;SDS011;66330;52.166;9.978;2023-02-04T02:05:39;1.57;;;1.20;;
77276;SDS011;66330;52.166;9.978;2023-02-04T02:08:08;4.50;;;1.70;;
77276;SDS011;66330;52.166;9.978;2023-02-04T02:10:35;1.63;;;1.20;;
77276;SDS011;66330;52.166;9.978;2023-02-04T02:13:04;1.67;;;1.20;;
77276;SDS011;66330;52.166;9.978;2023-02-04T02:15:31;1.70;;;1.20;;
77276;SDS011;66330;52.166;9.978;2023-02-04T02:17:56;1.63;;;1.47;;
77276;SDS011;66330;52.166;9.978;2023-02-04T02:20:23;2.60;;;1.27;;
77276;SDS011;66330;52.166;9.978;2023-02-04T02:22:59;3.10;;;1.30;;
77276;SDS011;66330;52.166;9.978;2023-02-04T02:25:44;2.77;;;1.37;;
77276;SDS011;66330;52.166;9.978;2023-02-04T02:28:12;1.67;;;1.17;;
77276;SDS011;66330;52.166;9.978;2023-02-04T02:30:40;1.00;;;1.00;;
77276;SDS011;66330;52.166;9.978;2023-02-04T02:33:09;1.37;;;1.20;;
77276;SDS011;66330;52.166;9.978;2023-02-04T02:35:40;3.07;;;1.50;;
77276;SDS011;66330;52.166;9.978;2023-02-04T02:38:08;3.97;;;1.43;;
77276;SDS011;66330;52.166;9.978;2023-02-04T02:40:35;1.50;;;1.10;;
77276;SDS011;66330;52.166;9.978;2023-02-04T02:43:01;1.50;;;1.40;;
77276;SDS011;66330;52.166;9.978;2023-02-04T02:45:29;2.00;;;1.10;;
77276;SDS011;66330;52.166;9.978;2023-02-04T02:47:56;1.73;;;1.30;;
77276;SDS011;66330;52.166;9.978;2023-02-04T02:50:25;1.20;;;1.10;;
77276;SDS011;66330;52.166;9.978;2023-02-04T02:52:52;1.10;;;1.00;;
77276;SDS011;66330;52.166;9.978;2023-02-04T02:55:19;1.70;;;1.60;;
77276;SDS011;66330;52.166;9.978;2023-02-04T02:57:47;1.37;;;1.27;;
77276;SDS011;66330;52.166;9.978;2023-02-04T03:00:19;2.30;;;1.47;;
77276;SDS011;66330;52.166;9.978;2023-02-04T03:03:07;1.20;;;1.10;;
77276;SDS011;66330;52.166;9.978;2023-02-04T03:05:40;1.27;;;1.13;;
77276;SDS011;66330;52.166;9.978;2023-02-04T03:08:07;1.20;;;1.10;;
77276;SDS011;66330;52.166;9.978;2023-02-04T03:10:34;2.27;;;1.20;;
77276;SDS011;66330;52.166;9.978;2023-02-04T03:13:00;1.97;;;1.10;;
77276;SDS011;66330;52.166;9.978;2023-02-04T03:15:27;1.37;;;1.10;;
77276;SDS011;66330;52.166;9.978;2023-02-04T03:17:53;1.50;;;1.00;;
77276;SDS011;66330;52.166;9.978;2023-02-04T03:20:21;1.93;;;1.37;;
77276;SDS011;66330;52.166;9.978;2023-02-04T03:22:51;1.23;;;1.13;;
77276;SDS011;66330;52.166;9.978;2023-02-04T03:25:18;2.70;;;1.50;;
77276;SDS011;66330;52.166;9.978;2023-02-04T03:27:44;1.67;;;1.10;;
77276;SDS011;66330;52.166;9.978;2023-02-04T03:30:11;1.00;;;1.00;;
77276;SDS011;66330;52.166;9.978;2023-02-04T03:32:36;2.07;;;1.40;;
77276;SDS011;66330;52.166;9.978;2023-02-04T03:35:02;1.27;;;0.90;;
77276;SDS011;66330;52.166;9.978;2023-02-04T03:37:28;1.80;;;1.20;;
77276;SDS011;66330;52.166;9.978;2023-02-04T03:39:53;1.20;;;0.90;;
77276;SDS011;66330;52.166;9.978;2023-02-04T03:42:19;1.77;;;1.00;;
77276;SDS011;66330;52.166;9.978;2023-02-04T03:44:44;1.63;;;1.33;;
77276;SDS011;66330;52.166;9.978;2023-02-04T03:47:10;1.10;;;1.00;;
77276;SDS011;66330;52.166;9.978;2023-02-04T03:49:35;2.50;;;1.13;;
77276;SDS011;66330;52.166;9.978;2023-02-04T03:52:01;1.53;;;1.10;;
77276;SDS011;66330;52.166;9.978;2023-02-04T03:54:27;1.30;;;1.20;;
77276;SDS011;66330;52.166;9.978;2023-02-04T03:56:53;1.00;;;1.00;;
77276;SDS011;66330;52.166;9.978;2023-02-04T03:59:18;2.23;;;1.10;;
77276;SDS011;66330;52.166;9.978;2023-02-04T04:01:44;2.73;;;1.37;;
77276;SDS011;66330;52.166;9.978;2023-02-04T04:04:09;1.50;;;1.40;;
77276;SDS011;66330;52.166;9.978;2023-02-04T04:06:35;1.00;;;1.00;;
77276;SDS011;66330;52.166;9.978;2023-02-04T04:09:01;2.30;;;1.47;;
77276;SDS011;66330;52.166;9.978;2023-02-04T04:11:26;1.60;;;1.23;;
77276;SDS011;66330;52.166;9.978;2023-02-04T04:13:52;1.83;;;1.10;;
77276;SDS011;66330;52.166;9.978;2023-02-04T04:16:18;2.60;;;1.43;;
77276;SDS011;66330;52.166;9.978;2023-02-04T04:18:44;1.40;;;1.10;;
77276;SDS011;66330;52.166;9.978;2023-02-04T04:21:10;1.90;;;1.17;;
77276;SDS011;66330;52.166;9.978;2023-02-04T04:23:36;1.30;;;1.20;;
77276;SDS011;66330;52.166;9.978;2023-02-04T04:26:01;1.57;;;1.20;;
77276;SDS011;66330;52.166;9.978;2023-02-04T04:28:27;1.13;;;1.03;;
77276;SDS011;66330;52.166;9.978;2023-02-04T04:30:53;2.73;;;2.60;;
77276;SDS011;66330;52.166;9.978;2023-02-04T04:33:18;1.40;;;1.30;;
77276;SDS011;66330;52.166;9.978;2023-02-04T04:35:44;1.33;;;1.23;;
77276;SDS011;66330;52.166;9.978;2023-02-04T04:38:09;1.30;;;1.20;;
77276;SDS011;66330;52.166;9.978;2023-02-04T04:40:35;3.00;;;1.53;;
77276;SDS011;66330;52.166;9.978;2023-02-04T04:43:01;2.13;;;1.77;;
77276;SDS011;66330;52.166;9.978;2023-02-04T04:45:27;2.13;;;1.83;;
77276;SDS011;66330;52.166;9.978;2023-02-04T04:47:53;1.53;;;1.20;;
77276;SDS011;66330;52.166;9.978;2023-02-04T04:50:18;2.80;;;1.50;;
77276;SDS011;66330;52.166;9.978;2023-02-04T04:52:44;1.73;;;1.40;;
77276;SDS011;66330;52.166;9.978;2023-02-04T04:55:10;2.20;;;2.00;;
77276;SDS011;66330;52.166;9.978;2023-02-04T04:57:35;1.20;;;1.10;;
77276;SDS011;66330;52.166;9.978;2023-02-04T05:00:01;4.27;;;1.57;;
77276;SDS011;66330;52.166;9.978;2023-02-04T05:02:28;1.80;;;1.50;;
77276;SDS011;66330;52.166;9.978;2023-02-04T05:04:53;1.20;;;1.10;;
77276;SDS011;66330;52.166;9.978;2023-02-04T05:07:19;1.70;;;1.60;;
77276;SDS011;66330;52.166;9.978;2023-02-04T05:09:44;1.60;;;1.50;;
77276;SDS011;66330;52.166;9.978;2023-02-04T05:12:10;5.40;;;3.17;;
77276;SDS011;66330;52.166;9.978;2023-02-04T05:14:36;1.47;;;1.33;;
77276;SDS011;66330;52.166;9.978;2023-02-04T05:17:01;1.50;;;1.40;;
77276;SDS011;66330;52.166;9.978;2023-02-04T05:19:27;2.67;;;1.60;;
77276;SDS011;66330;52.166;9.978;2023-02-04T05:21:52;2.60;;;1.53;;
77276;SDS011;66330;52.166;9.978;2023-02-04T05:24:18;1.90;;;1.57;;
77276;SDS011;66330;52.166;9.978;2023-02-04T05:26:44;1.83;;;1.73;;
77276;SDS011;66330;52.166;9.978;2023-02-04T05:29:09;2.50;;;1.80;;
77276;SDS011;66330;52.166;9.978;2023-02-04T05:31:35;2.00;;;1.80;;
77276;SDS011;66330;52.166;9.978;2023-02-04T05:34:00;2.03;;;1.60;;
77276;SDS011;66330;52.166;9.978;2023-02-04T05:36:26;1.97;;;1.70;;
77276;SDS011;66330;52.166;9.978;2023-02-04T05:38:52;2.50;;;2.00;;
77276;SDS011;66330;52.166;9.978;2023-02-04T05:41:17;2.40;;;2.20;;
77276;SDS011;66330;52.166;9.978;2023-02-04T05:43:43;2.30;;;1.90;;
77276;SDS011;66330;52.166;9.978;2023-02-04T05:46:08;3.30;;;3.07;;
77276;SDS011;66330;52.166;9.978;2023-02-04T05:48:34;5.00;;;4.53;;
77276;SDS011;66330;52.166;9.978;2023-02-04T05:50:59;6.10;;;4.80;;
77276;SDS011;66330;52.166;9.978;2023-02-04T05:53:25;3.27;;;2.93;;
77276;SDS011;66330;52.166;9.978;2023-02-04T05:55:51;1.57;;;1.47;;
77276;SDS011;66330;52.166;9.978;2023-02-04T05:58:16;2.43;;;2.20;;
77276;SDS011;66330;52.166;9.978;2023-02-04T06:00:42;3.20;;;2.03;;
77276;SDS011;66330;52.166;9.978;2023-02-04T06:03:07;2.83;;;2.40;;
77276;SDS011;66330;52.166;9.978;2023-02-04T06:05:33;3.17;;;2.90;;
77276;SDS011;66330;52.166;9.978;2023-02-04T06:07:58;4.20;;;3.80;;
77276;SDS011;66330;52.166;9.978;2023-02-04T06:10:24;2.93;;;2.10;;
77276;SDS011;66330;52.166;9.978;2023-02-04T06:12:49;2.63;;;2.43;;
77276;SDS011;66330;52.166;9.978;2023-02-04T06:15:15;3.13;;;2.67;;
77276;SDS011;66330;52.166;9.978;2023-02-04T06:17:41;2.40;;;2.20;;
77276;SDS011;66330;52.166;9.978;2023-02-04T06:20:07;6.40;;;2.53;;
77276;SDS011;66330;52.166;9.978;2023-02-04T06:22:33;2.80;;;1.90;;
77276;SDS011;66330;52.166;9.978;2023-02-04T06:24:59;4.97;;;2.70;;
77276;SDS011;66330;52.166;9.978;2023-02-04T06:27:24;3.40;;;2.90;;
77276;SDS011;66330;52.166;9.978;2023-02-04T06:29:53;4.17;;;3.53;;
77276;SDS011;66330;52.166;9.978;2023-02-04T06:32:19;4.13;;;3.40;;
77276;SDS011;66330;52.166;9.978;2023-02-04T06:34:45;2.50;;;2.30;;
77276;SDS011;66330;52.166;9.978;2023-02-04T06:37:10;4.50;;;4.10;;
77276;SDS011;66330;52.166;9.978;2023-02-04T06:39:36;9.70;;;8.60;;
77276;SDS011;66330;52.166;9.978;2023-02-04T06:42:02;3.60;;;3.30;;
77276;SDS011;66330;52.166;9.978;2023-02-04T06:44:28;4.07;;;3.13;;
77276;SDS011;66330;52.166;9.978;2023-02-04T06:46:54;3.67;;;3.43;;
77276;SDS011;66330;52.166;9.978;2023-02-04T06:49:19;2.63;;;2.43;;
77276;SDS011;66330;52.166;9.978;2023-02-04T06:51:45;3.20;;;2.87;;
77276;SDS011;66330;52.166;9.978;2023-02-04T06:54:12;3.07;;;2.80;;
77276;SDS011;66330;52.166;9.978;2023-02-04T06:56:38;4.10;;;3.60;;
77276;SDS011;66330;52.166;9.978;2023-02-04T06:59:03;3.60;;;3.23;;
77276;SDS011;66330;52.166;9.978;2023-02-04T07:01:29;3.73;;;2.53;;
77276;SDS011;66330;52.166;9.978;2023-02-04T07:03:55;3.47;;;3.17;;
77276;SDS011;66330;52.166;9.978;2023-02-04T07:06:21;3.50;;;3.00;;
77276;SDS011;66330;52.166;9.978;2023-02-04T07:08:46;5.50;;;3.33;;
77276;SDS011;66330;52.166;9.978;2023-02-04T07:11:13;3.20;;;2.60;;
77276;SDS011;66330;52.166;9.978;2023-02-04T07:13:39;4.00;;;3.43;;
77276;SDS011;66330;52.166;9.978;2023-02-04T07:16:05;5.73;;;4.77;;
77276;SDS011;66330;52.166;9.978;2023-02-04T07:18:31;6.30;;;4.93;;
77276;SDS011;66330;52.166;9.978;2023-02-04T07:20:57;5.00;;;3.57;;
77276;SDS011;66330;52.166;9.978;2023-02-04T07:23:22;4.23;;;3.47;;
77276;SDS011;66330;52.166;9.978;2023-02-04T07:25:49;3.67;;;2.97;;
77276;SDS011;66330;52.166;9.978;2023-02-04T07:28:17;3.17;;;2.97;;
77276;SDS011;66330;52.166;9.978;2023-02-04T07:30:44;4.33;;;3.40;;
77276;SDS011;66330;52.166;9.978;2023-02-04T07:33:09;2.80;;;2.60;;
77276;SDS011;66330;52.166;9.978;2023-02-04T07:35:35;2.93;;;2.67;;
77276;SDS011;66330;52.166;9.978;2023-02-04T07:38:02;3.10;;;2.90;;
77276;SDS011;66330;52.166;9.978;2023-02-04T07:40:28;3.50;;;3.03;;
77276;SDS011;66330;52.166;9.978;2023-02-04T07:42:54;3.80;;;3.50;;
77276;SDS011;66330;52.166;9.978;2023-02-04T07:45:19;6.10;;;3.63;;
77276;SDS011;66330;52.166;9.978;2023-02-04T07:47:45;3.20;;;2.93;;
77276;SDS011;66330;52.166;9.978;2023-02-04T07:50:10;4.00;;;3.40;;
77276;SDS011;66330;52.166;9.978;2023-02-04T07:52:36;4.70;;;2.80;;
77276;SDS011;66330;52.166;9.978;2023-02-04T07:55:02;4.07;;;3.00;;
77276;SDS011;66330;52.166;9.978;2023-02-04T07:57:28;3.60;;;3.27;;
77276;SDS011;66330;52.166;9.978;2023-02-04T07:59:54;4.10;;;3.70;;
77276;SDS011;66330;52.166;9.978;2023-02-04T08:02:20;3.30;;;3.00;;
77276;SDS011;66330;52.166;9.978;2023-02-04T08:04:46;4.77;;;3.70;;
77276;SDS011;66330;52.166;9.978;2023-02-04T08:07:11;4.90;;;3.10;;
77276;SDS011;66330;52.166;9.978;2023-02-04T08:09:37;3.70;;;3.10;;
77276;SDS011;66330;52.166;9.978;2023-02-04T08:12:02;3.73;;;3.40;;
77276;SDS011;66330;52.166;9.978;2023-02-04T08:14:28;3.30;;;3.10;;
77276;SDS011;66330;52.166;9.978;2023-02-04T08:16:54;3.20;;;2.80;;
77276;SDS011;66330;52.166;9.978;2023-02-04T08:19:19;3.27;;;2.97;;
77276;SDS011;66330;52.166;9.978;2023-02-04T08:21:45;4.17;;;3.70;;
77276;SDS011;66330;52.166;9.978;2023-02-04T08:24:12;4.33;;;3.43;;
77276;SDS011;66330;52.166;9.978;2023-02-04T08:26:41;4.23;;;3.57;;
77276;SDS011;66330;52.166;9.978;2023-02-04T08:29:08;3.33;;;3.03;;
77276;SDS011;66330;52.166;9.978;2023-02-04T08:31:33;3.47;;;3.13;;
77276;SDS011;66330;52.166;9.978;2023-02-04T08:34:01;3.57;;;3.10;;
77276;SDS011;66330;52.166;9.978;2023-02-04T08:36:27;4.37;;;3.30;;
77276;SDS011;66330;52.166;9.978;2023-02-04T08:38:53;3.90;;;2.70;;
77276;SDS011;66330;52.166;9.978;2023-02-04T08:41:18;3.57;;;3.27;;
77276;SDS011;66330;52.166;9.978;2023-02-04T08:43:44;4.00;;;3.40;;
77276;SDS011;66330;52.166;9.978;2023-02-04T08:46:10;4.17;;;3.23;;
77276;SDS011;66330;52.166;9.978;2023-02-04T08:48:35;3.63;;;3.33;;
77276;SDS011;66330;52.166;9.978;2023-02-04T08:51:01;3.07;;;2.70;;
77276;SDS011;66330;52.166;9.978;2023-02-04T08:53:26;4.70;;;3.20;;
77276;SDS011;66330;52.166;9.978;2023-02-04T08:55:52;2.73;;;2.50;;
77276;SDS011;66330;52.166;9.978;2023-02-04T08:58:18;3.40;;;3.10;;
77276;SDS011;66330;52.166;9.978;2023-02-04T09:00:43;3.20;;;2.90;;
77276;SDS011;66330;52.166;9.978;2023-02-04T09:03:09;3.03;;;2.73;;
77276;SDS011;66330;52.166;9.978;2023-02-04T09:05:34;3.27;;;2.97;;
77276;SDS011;66330;52.166;9.978;2023-02-04T09:08:00;3.90;;;3.37;;
77276;SDS011;66330;52.166;9.978;2023-02-04T09:10:25;4.83;;;3.60;;
77276;SDS011;66330;52.166;9.978;2023-02-04T09:12:51;4.87;;;3.20;;
77276;SDS011;66330;52.166;9.978;2023-02-04T09:15:20;3.27;;;2.97;;
77276;SDS011;66330;52.166;9.978;2023-02-04T09:17:50;3.43;;;2.90;;
77276;SDS011;66330;52.166;9.978;2023-02-04T09:20:18;4.57;;;3.40;;
77276;SDS011;66330;52.166;9.978;2023-02-04T09:22:45;3.33;;;3.03;;
77276;SDS011;66330;52.166;9.978;2023-02-04T09:25:12;5.43;;;3.13;;
77276;SDS011;66330;52.166;9.978;2023-02-04T09:27:37;2.80;;;2.60;;
77276;SDS011;66330;52.166;9.978;2023-02-04T09:30:03;3.27;;;2.70;;
77276;SDS011;66330;52.166;9.978;2023-02-04T09:32:29;3.00;;;2.63;;
77276;SDS011;66330;52.166;9.978;2023-02-04T09:34:55;3.60;;;3.07;;
77276;SDS011;66330;52.166;9.978;2023-02-04T09:37:20;2.73;;;2.53;;
77276;SDS011;66330;52.166;9.978;2023-02-04T09:39:46;3.20;;;3.00;;
77276;SDS011;66330;52.166;9.978;2023-02-04T09:42:15;3.87;;;3.47;;
77276;SDS011;66330;52.166;9.978;2023-02-04T09:44:41;4.27;;;3.60;;
77276;SDS011;66330;52.166;9.978;2023-02-04T09:47:09;4.90;;;4.50;;
77276;SDS011;66330;52.166;9.978;2023-02-04T09:49:37;4.47;;;3.87;;
77276;SDS011;66330;52.166;9.978;2023-02-04T09:52:02;6.00;;;4.87;;
77276;SDS011;66330;52.166;9.978;2023-02-04T09:54:28;3.40;;;3.10;;
77276;SDS011;66330;52.166;9.978;2023-02-04T09:56:54;3.10;;;2.83;;
77276;SDS011;66330;52.166;9.978;2023-02-04T09:59:21;8.13;;;5.80;;
77276;SDS011;66330;52.166;9.978;2023-02-04T10:01:58;5.10;;;3.50;;
77276;SDS011;66330;52.166;9.978;2023-02-04T10:04:25;4.10;;;3.43;;
77276;SDS011;66330;52.166;9.978;2023-02-04T10:06:52;6.67;;;3.97;;
77276;SDS011;66330;52.166;9.978;2023-02-04T10:09:19;4.10;;;3.60;;
77276;SDS011;66330;52.166;9.978;2023-02-04T10:11:45;4.80;;;4.27;;
77276;SDS011;66330;52.166;9.978;2023-02-04T10:14:16;4.70;;;4.13;;
77276;SDS011;66330;52.166;9.978;2023-02-04T10:16:50;4.47;;;3.93;;
77276;SDS011;66330;52.166;9.978;2023-02-04T10:19:21;8.30;;;7.50;;
77276;SDS011;66330;52.166;9.978;2023-02-04T10:21:47;3.87;;;3.57;;
77276;SDS011;66330;52.166;9.978;2023-02-04T10:24:17;4.70;;;4.30;;
77276;SDS011;66330;52.166;9.978;2023-02-04T10:26:45;5.50;;;3.50;;
77276;SDS011;66330;52.166;9.978;2023-02-04T10:31:49;5.07;;;4.40;;
77276;SDS011;66330;52.166;9.978;2023-02-04T10:34:49;6.20;;;5.17;;
77276;SDS011;66330;52.166;9.978;2023-02-04T10:37:11;7.47;;;4.53;;
77276;SDS011;66330;52.166;9.978;2023-02-04T10:39:44;6.40;;;3.90;;
77276;SDS011;66330;52.166;9.978;2023-02-04T10:42:20;6.03;;;4.97;;
77276;SDS011;66330;52.166;9.978;2023-02-04T10:44:48;4.70;;;4.30;;
77276;SDS011;66330;52.166;9.978;2023-02-04T10:47:15;5.97;;;4.40;;
77276;SDS011;66330;52.166;9.978;2023-02-04T10:50:00;6.50;;;5.90;;
77276;SDS011;66330;52.166;9.978;2023-02-04T10:52:42;6.43;;;5.63;;
77276;SDS011;66330;52.166;9.978;2023-02-04T10:55:11;5.87;;;4.83;;
77276;SDS011;66330;52.166;9.978;2023-02-04T10:57:40;4.47;;;3.63;;
77276;SDS011;66330;52.166;9.978;2023-02-04T11:00:15;5.30;;;4.00;;
77276;SDS011;66330;52.166;9.978;2023-02-04T11:05:16;7.40;;;6.70;;
77276;SDS011;66330;52.166;9.978;2023-02-04T11:07:45;6.57;;;4.80;;
77276;SDS011;66330;52.166;9.978;2023-02-04T11:10:31;5.30;;;4.23;;
77276;SDS011;66330;52.166;9.978;2023-02-04T11:12:59;3.97;;;3.50;;
77276;SDS011;66330;52.166;9.978;2023-02-04T11:15:41;6.10;;;4.57;;
77276;SDS011;66330;52.166;9.978;2023-02-04T11:20:46;7.53;;;5.10;;
77276;SDS011;66330;52.166;9.978;2023-02-04T11:25:41;5.20;;;4.70;;
77276;SDS011;66330;52.166;9.978;2023-02-04T11:28:14;3.83;;;3.53;;
77276;SDS011;66330;52.166;9.978;2023-02-04T11:30:57;2.83;;;2.63;;
77276;SDS011;66330;52.166;9.978;2023-02-04T11:33:39;3.63;;;2.50;;
77276;SDS011;66330;52.166;9.978;2023-02-04T11:36:09;2.80;;;2.60;;
77276;SDS011;66330;52.166;9.978;2023-02-04T11:38:37;2.63;;;2.43;;
77276;SDS011;66330;52.166;9.978;2023-02-04T11:41:11;3.00;;;2.70;;
77276;SDS011;66330;52.166;9.978;2023-02-04T11:43:50;5.63;;;5.03;;
77276;SDS011;66330;52.166;9.978;2023-02-04T11:46:18;4.90;;;4.50;;
77276;SDS011;66330;52.166;9.978;2023-02-04T11:48:44;6.77;;;6.07;;
77276;SDS011;66330;52.166;9.978;2023-02-04T11:51:14;3.03;;;2.73;;
77276;SDS011;66330;52.166;9.978;2023-02-04T11:53:41;2.07;;;1.90;;
77276;SDS011;66330;52.166;9.978;2023-02-04T11:56:15;1.77;;;1.57;;
77276;SDS011;66330;52.166;9.978;2023-02-04T11:58:42;2.30;;;1.90;;
77276;SDS011;66330;52.166;9.978;2023-02-04T12:01:20;2.33;;;1.70;;
77276;SDS011;66330;52.166;9.978;2023-02-04T12:03:49;1.80;;;1.60;;
77276;SDS011;66330;52.166;9.978;2023-02-04T12:06:25;1.73;;;1.57;;
77276;SDS011;66330;52.166;9.978;2023-02-04T12:09:02;4.37;;;3.97;;
77276;SDS011;66330;52.166;9.978;2023-02-04T12:11:56;5.13;;;4.70;;
77276;SDS011;66330;52.166;9.978;2023-02-04T12:14:33;6.60;;;6.00;;
77276;SDS011;66330;52.166;9.978;2023-02-04T12:17:11;2.63;;;2.43;;
77276;SDS011;66330;52.166;9.978;2023-02-04T12:19:40;1.70;;;1.60;;
77276;SDS011;66330;52.166;9.978;2023-02-04T12:22:05;1.97;;;1.77;;
77276;SDS011;66330;52.166;9.978;2023-02-04T12:24:31;2.67;;;2.27;;
77276;SDS011;66330;52.166;9.978;2023-02-04T12:26:57;6.10;;;5.50;;
77276;SDS011;66330;52.166;9.978;2023-02-04T12:29:22;3.57;;;3.27;;
77276;SDS011;66330;52.166;9.978;2023-02-04T12:31:48;2.40;;;2.10;;
77276;SDS011;66330;52.166;9.978;2023-02-04T12:34:13;2.13;;;1.60;;
77276;SDS011;66330;52.166;9.978;2023-02-04T12:36:41;1.97;;;1.63;;
77276;SDS011;66330;52.166;9.978;2023-02-04T12:39:06;2.90;;;1.77;;
77276;SDS011;66330;52.166;9.978;2023-02-04T12:41:32;2.77;;;1.27;;
77276;SDS011;66330;52.166;9.978;2023-02-04T12:43:58;1.80;;;1.50;;
77276;SDS011;66330;52.166;9.978;2023-02-04T12:46:25;2.17;;;1.70;;
77276;SDS011;66330;52.166;9.978;2023-02-04T12:48:51;2.80;;;2.40;;
77276;SDS011;66330;52.166;9.978;2023-02-04T12:51:17;1.70;;;1.60;;
77276;SDS011;66330;52.166;9.978;2023-02-04T12:53:42;1.50;;;1.40;;
77276;SDS011;66330;52.166;9.978;2023-02-04T12:56:08;1.70;;;1.50;;
77276;SDS011;66330;52.166;9.978;2023-02-04T12:58:33;3.07;;;2.03;;
77276;SDS011;66330;52.166;9.978;2023-02-04T13:00:59;2.40;;;1.63;;
77276;SDS011;66330;52.166;9.978;2023-02-04T13:03:24;2.80;;;1.60;;
77276;SDS011;66330;52.166;9.978;2023-02-04T13:05:50;5.20;;;1.77;;
77276;SDS011;66330;52.166;9.978;2023-02-04T13:08:16;2.60;;;1.50;;
77276;SDS011;66330;52.166;9.978;2023-02-04T13:10:41;2.00;;;1.57;;
77276;SDS011;66330;52.166;9.978;2023-02-04T13:13:07;2.33;;;1.67;;
77276;SDS011;66330;52.166;9.978;2023-02-04T13:15:32;1.70;;;1.60;;
77276;SDS011;66330;52.166;9.978;2023-02-04T13:17:58;2.07;;;1.50;;
77276;SDS011;66330;52.166;9.978;2023-02-04T13:20:23;1.53;;;1.43;;
77276;SDS011;66330;52.166;9.978;2023-02-04T13:22:49;1.40;;;1.30;;
77276;SDS011;66330;52.166;9.978;2023-02-04T13:25:14;1.70;;;1.60;;
77276;SDS011;66330;52.166;9.978;2023-02-04T13:27:40;2.57;;;2.37;;
77276;SDS011;66330;52.166;9.978;2023-02-04T13:30:06;2.17;;;1.70;;
77276;SDS011;66330;52.166;9.978;2023-02-04T13:32:33;2.17;;;1.70;;
77276;SDS011;66330;52.166;9.978;2023-02-04T13:34:59;1.43;;;1.30;;
77276;SDS011;66330;52.166;9.978;2023-02-04T13:37:24;1.60;;;1.30;;
77276;SDS011;66330;52.166;9.978;2023-02-04T13:39:50;1.73;;;1.57;;
77276;SDS011;66330;52.166;9.978;2023-02-04T13:42:15;2.33;;;1.33;;
77276;SDS011;66330;52.166;9.978;2023-02-04T13:44:41;1.80;;;1.57;;
77276;SDS011;66330;52.166;9.978;2023-02-04T13:47:07;1.53;;;1.43;;
77276;SDS011;66330;52.166;9.978;2023-02-04T13:49:32;1.60;;;1.50;;
77276;SDS011;66330;52.166;9.978;2023-02-04T13:51:58;1.60;;;1.50;;
77276;SDS011;66330;52.166;9.978;2023-02-04T13:54:24;1.53;;;1.20;;
77276;SDS011;66330;52.166;9.978;2023-02-04T13:56:49;3.20;;;1.63;;
77276;SDS011;66330;52.166;9.978;2023-02-04T13:59:15;2.03;;;1.70;;
77276;SDS011;66330;52.166;9.978;2023-02-04T14:01:40;2.50;;;1.70;;
77276;SDS011;66330;52.166;9.978;2023-02-04T14:04:06;1.40;;;1.30;;
77276;SDS011;66330;52.166;9.978;2023-02-04T14:06:32;1.20;;;1.10;;
77276;SDS011;66330;52.166;9.978;2023-02-04T14:09:01;3.00;;;1.20;;
77276;SDS011;66330;52.166;9.978;2023-02-04T14:11:28;1.37;;;1.27;;
77276;SDS011;66330;52.166;9.978;2023-02-04T14:13:53;1.70;;;1.60;;
77276;SDS011;66330;52.166;9.978;2023-02-04T14:16:19;2.97;;;1.63;;
77276;SDS011;66330;52.166;9.978;2023-02-04T14:18:45;3.63;;;2.23;;
77276;SDS011;66330;52.166;9.978;2023-02-04T14:21:10;2.30;;;2.10;;
77276;SDS011;66330;52.166;9.978;2023-02-04T14:23:36;3.23;;;2.43;;
77276;SDS011;66330;52.166;9.978;2023-02-04T14:26:01;4.00;;;3.40;;
77276;SDS011;66330;52.166;9.978;2023-02-04T14:28:27;2.13;;;1.93;;
77276;SDS011;66330;52.166;9.978;2023-02-04T14:30:53;2.67;;;1.87;;
77276;SDS011;66330;52.166;9.978;2023-02-04T14:33:19;5.00;;;2.40;;
77276;SDS011;66330;52.166;9.978;2023-02-04T14:35:45;1.50;;;1.40;;
77276;SDS011;66330;52.166;9.978;2023-02-04T14:38:10;2.40;;;1.50;;
77276;SDS011;66330;52.166;9.978;2023-02-04T14:40:40;1.60;;;1.50;;
77276;SDS011;66330;52.166;9.978;2023-02-04T14:43:06;2.93;;;2.00;;
77276;SDS011;66330;52.166;9.978;2023-02-04T14:45:32;2.40;;;1.67;;
77276;SDS011;66330;52.166;9.978;2023-02-04T14:47:58;1.97;;;1.80;;
77276;SDS011;66330;52.166;9.978;2023-02-04T14:50:25;2.20;;;1.83;;
77276;SDS011;66330;52.166;9.978;2023-02-04T14:52:52;3.60;;;1.60;;
77276;SDS011;66330;52.166;9.978;2023-02-04T14:55:19;1.70;;;1.60;;
77276;SDS011;66330;52.166;9.978;2023-02-04T14:57:45;2.03;;;1.90;;